sensor_id;sensor_type;location;lat;lon;timestamp;pressure;altitude;pressure_sealevel;temperature;humidity
19114;BME280;9689;51.052;13.772;2022-12-22T00:00:16;99829.50;;;4.10;85.30
19114;BME280;9689;51.052;13.772;2022-12-22T00:05:35;99827.81;;;3.92;85.92
19114;BME280;9689;51.052;13.772;2022-12-22T00:10:54;99825.22;;;3.84;85.92
19114;BME280;9689;51.052;13.772;2022-12-22T00:16:13;99821.78;;;3.76;85.87
19114;BME280;9689;51.052;13.772;2022-12-22T00:21:33;99805.47;;;3.65;86.74
19114;BME280;9689;51.052;13.772;2022-12-22T00:26:51;99820.06;;;3.52;87.20
19114;BME280;9689;51.052;13.772;2022-12-22T00:32:11;99826.06;;;3.44;87.78
19114;BME280;9689;51.052;13.772;2022-12-22T00:37:33;99820.91;;;3.47;88.12
19114;BME280;9689;51.052;13.772;2022-12-22T00:42:52;99814.91;;;3.54;87.87
19114;BME280;9689;51.052;13.772;2022-12-22T00:48:18;99800.31;;;3.56;87.62
19114;BME280;9689;51.052;13.772;2022-12-22T00:53:40;99794.31;;;3.58;87.41
19114;BME280;9689;51.052;13.772;2022-12-22T00:58:59;99784.84;;;3.54;87.82
19114;BME280;9689;51.052;13.772;2022-12-22T01:04:17;99777.13;;;3.51;87.36
19114;BME280;9689;51.052;13.772;2022-12-22T01:09:37;99777.16;;;3.57;87.15
19114;BME280;9689;51.052;13.772;2022-12-22T01:14:55;99772.84;;;3.68;87.04
19114;BME280;9689;51.052;13.772;2022-12-22T01:20:14;99771.13;;;3.75;86.50
19114;BME280;9689;51.052;13.772;2022-12-22T01:25:34;99766.81;;;3.73;86.41
19114;BME280;9689;51.052;13.772;2022-12-22T01:30:52;99751.34;;;3.83;85.96
19114;BME280;9689;51.052;13.772;2022-12-22T01:36:10;99740.19;;;3.77;86.59
19114;BME280;9689;51.052;13.772;2022-12-22T01:41:30;99739.34;;;3.75;86.33
19114;BME280;9689;51.052;13.772;2022-12-22T01:46:48;99730.72;;;3.82;86.72
19114;BME280;9689;51.052;13.772;2022-12-22T01:52:07;99732.41;;;4.01;86.15
19114;BME280;9689;51.052;13.772;2022-12-22T01:57:27;99733.22;;;4.14;85.25
19114;BME280;9689;51.052;13.772;2022-12-22T02:02:47;99721.16;;;4.16;84.66
19114;BME280;9689;51.052;13.772;2022-12-22T02:08:12;99708.22;;;4.31;84.09
19114;BME280;9689;51.052;13.772;2022-12-22T02:13:41;99699.66;;;4.26;83.76
19114;BME280;9689;51.052;13.772;2022-12-22T02:19:09;99697.06;;;4.24;83.85
19114;BME280;9689;51.052;13.772;2022-12-22T02:24:36;99698.78;;;4.25;83.74
19114;BME280;9689;51.052;13.772;2022-12-22T02:30:00;99691.91;;;4.28;83.99
19114;BME280;9689;51.052;13.772;2022-12-22T02:35:19;99683.31;;;4.29;84.18
19114;BME280;9689;51.052;13.772;2022-12-22T02:40:45;99673.00;;;4.24;83.16
19114;BME280;9689;51.052;13.772;2022-12-22T02:46:13;99667.81;;;4.30;83.88
19114;BME280;9689;51.052;13.772;2022-12-22T02:51:39;99662.69;;;4.27;84.56
19114;BME280;9689;51.052;13.772;2022-12-22T02:57:01;99657.59;;;4.10;85.72
19114;BME280;9689;51.052;13.772;2022-12-22T03:02:21;99654.97;;;4.22;85.43
19114;BME280;9689;51.052;13.772;2022-12-22T03:07:39;99649.00;;;4.17;85.63
19114;BME280;9689;51.052;13.772;2022-12-22T03:13:06;99641.19;;;4.25;85.73
19114;BME280;9689;51.052;13.772;2022-12-22T03:18:26;99623.13;;;4.25;86.54
19114;BME280;9689;51.052;13.772;2022-12-22T03:23:44;99602.50;;;4.23;87.74
19114;BME280;9689;51.052;13.772;2022-12-22T03:29:02;99594.81;;;4.20;87.49
19114;BME280;9689;51.052;13.772;2022-12-22T03:34:04;99594.78;;;4.23;87.52
19114;BME280;9689;51.052;13.772;2022-12-22T03:39:05;99578.47;;;4.26;87.74
19114;BME280;9689;51.052;13.772;2022-12-22T03:44:06;99576.69;;;4.30;87.81
19114;BME280;9689;51.052;13.772;2022-12-22T03:49:25;99571.53;;;4.31;87.20
19114;BME280;9689;51.052;13.772;2022-12-22T03:54:26;99575.81;;;4.35;87.22
19114;BME280;9689;51.052;13.772;2022-12-22T03:59:27;99577.47;;;4.42;87.04
19114;BME280;9689;51.052;13.772;2022-12-22T04:04:29;99570.56;;;4.43;86.66
19114;BME280;9689;51.052;13.772;2022-12-22T04:09:29;99569.72;;;4.45;86.03
19114;BME280;9689;51.052;13.772;2022-12-22T04:14:30;99564.53;;;4.48;85.80
19114;BME280;9689;51.052;13.772;2022-12-22T04:19:34;99564.47;;;4.56;86.12
19114;BME280;9689;51.052;13.772;2022-12-22T04:24:35;99550.69;;;4.59;84.71
19114;BME280;9689;51.052;13.772;2022-12-22T04:29:35;99549.84;;;4.57;85.06
19114;BME280;9689;51.052;13.772;2022-12-22T04:34:37;99543.81;;;4.58;85.70
19114;BME280;9689;51.052;13.772;2022-12-22T04:39:38;99530.94;;;4.54;85.80
19114;BME280;9689;51.052;13.772;2022-12-22T04:44:39;99533.47;;;4.64;85.39
19114;BME280;9689;51.052;13.772;2022-12-22T04:49:41;99520.59;;;4.56;85.20
19114;BME280;9689;51.052;13.772;2022-12-22T04:54:41;99515.44;;;4.61;85.23
19114;BME280;9689;51.052;13.772;2022-12-22T04:59:42;99508.53;;;4.61;84.79
19114;BME280;9689;51.052;13.772;2022-12-22T05:04:44;99507.69;;;4.61;85.35
19114;BME280;9689;51.052;13.772;2022-12-22T05:09:45;99506.81;;;4.59;84.74
19114;BME280;9689;51.052;13.772;2022-12-22T05:14:45;99483.53;;;4.69;84.79
19114;BME280;9689;51.052;13.772;2022-12-22T05:19:47;99487.91;;;4.61;84.54
19114;BME280;9689;51.052;13.772;2022-12-22T05:24:48;99484.41;;;4.65;84.68
19114;BME280;9689;51.052;13.772;2022-12-22T05:29:49;99483.47;;;4.72;84.59
19114;BME280;9689;51.052;13.772;2022-12-22T05:34:51;99473.22;;;4.66;84.70
19114;BME280;9689;51.052;13.772;2022-12-22T05:39:51;99462.00;;;4.70;84.17
19114;BME280;9689;51.052;13.772;2022-12-22T05:44:52;99464.56;;;4.72;84.11
19114;BME280;9689;51.052;13.772;2022-12-22T05:49:54;99453.47;;;4.62;85.32
19114;BME280;9689;51.052;13.772;2022-12-22T05:54:55;99449.09;;;4.69;85.78
19114;BME280;9689;51.052;13.772;2022-12-22T05:59:55;99448.34;;;4.61;86.55
19114;BME280;9689;51.052;13.772;2022-12-22T06:04:57;99444.88;;;4.63;86.75
19114;BME280;9689;51.052;13.772;2022-12-22T06:09:58;99436.25;;;4.64;87.15
19114;BME280;9689;51.052;13.772;2022-12-22T06:15:07;99437.03;;;4.72;86.58
19114;BME280;9689;51.052;13.772;2022-12-22T06:20:10;99437.84;;;4.79;87.33
19114;BME280;9689;51.052;13.772;2022-12-22T06:25:13;99430.06;;;4.80;86.92
19114;BME280;9689;51.052;13.772;2022-12-22T06:30:17;99438.78;;;4.70;88.10
19114;BME280;9689;51.052;13.772;2022-12-22T06:35:19;99425.00;;;4.71;87.53
19114;BME280;9689;51.052;13.772;2022-12-22T06:40:20;99428.41;;;4.73;87.63
19114;BME280;9689;51.052;13.772;2022-12-22T06:45:21;99430.94;;;4.79;88.14
19114;BME280;9689;51.052;13.772;2022-12-22T06:50:23;99440.44;;;4.74;88.54
19114;BME280;9689;51.052;13.772;2022-12-22T06:55:24;99446.53;;;4.70;88.55
19114;BME280;9689;51.052;13.772;2022-12-22T07:00:24;99449.88;;;4.78;88.38
19114;BME280;9689;51.052;13.772;2022-12-22T07:05:26;99445.56;;;4.80;88.25
19114;BME280;9689;51.052;13.772;2022-12-22T07:10:28;99421.47;;;4.77;88.84
19114;BME280;9689;51.052;13.772;2022-12-22T07:15:47;99399.88;;;4.86;88.49
19114;BME280;9689;51.052;13.772;2022-12-22T07:21:01;99408.50;;;4.83;88.69
19114;BME280;9689;51.052;13.772;2022-12-22T07:26:03;99402.41;;;4.92;88.23
19114;BME280;9689;51.052;13.772;2022-12-22T07:31:04;99398.88;;;4.99;88.01
19114;BME280;9689;51.052;13.772;2022-12-22T07:36:10;99385.88;;;5.06;88.21
19114;BME280;9689;51.052;13.772;2022-12-22T07:41:13;99383.97;;;5.22;87.32
19114;BME280;9689;51.052;13.772;2022-12-22T07:46:34;99372.59;;;5.34;86.48
19114;BME280;9689;51.052;13.772;2022-12-22T07:51:37;99375.03;;;5.45;86.61
19114;BME280;9689;51.052;13.772;2022-12-22T07:56:40;99380.06;;;5.54;86.17
19114;BME280;9689;51.052;13.772;2022-12-22T08:01:41;99376.44;;;5.64;86.15
19114;BME280;9689;51.052;13.772;2022-12-22T08:06:43;99370.44;;;5.65;85.67
19114;BME280;9689;51.052;13.772;2022-12-22T08:11:44;99364.38;;;5.66;84.57
19114;BME280;9689;51.052;13.772;2022-12-22T08:16:45;99361.44;;;5.87;84.23
19114;BME280;9689;51.052;13.772;2022-12-22T08:21:47;99347.41;;;6.05;83.91
19114;BME280;9689;51.052;13.772;2022-12-22T08:26:53;99330.53;;;6.32;83.14
19114;BME280;9689;51.052;13.772;2022-12-22T08:31:57;99324.16;;;6.50;81.91
19114;BME280;9689;51.052;13.772;2022-12-22T08:37:01;99320.38;;;6.66;82.17
19114;BME280;9689;51.052;13.772;2022-12-22T08:42:03;99312.38;;;6.77;80.55
19114;BME280;9689;51.052;13.772;2022-12-22T08:47:05;99302.78;;;6.84;80.75
19114;BME280;9689;51.052;13.772;2022-12-22T08:52:15;99291.63;;;7.19;80.25
19114;BME280;9689;51.052;13.772;2022-12-22T08:57:17;99288.50;;;7.43;79.76
19114;BME280;9689;51.052;13.772;2022-12-22T09:02:18;99291.41;;;7.67;78.73
19114;BME280;9689;51.052;13.772;2022-12-22T09:07:20;99278.06;;;7.80;78.32
19114;BME280;9689;51.052;13.772;2022-12-22T09:12:21;99274.38;;;7.89;77.62
19114;BME280;9689;51.052;13.772;2022-12-22T09:17:22;99268.91;;;8.01;77.53
19114;BME280;9689;51.052;13.772;2022-12-22T09:22:24;99266.34;;;8.00;78.26
19114;BME280;9689;51.052;13.772;2022-12-22T09:27:28;99252.03;;;8.17;77.41
19114;BME280;9689;51.052;13.772;2022-12-22T09:32:29;99250.94;;;8.26;77.17
19114;BME280;9689;51.052;13.772;2022-12-22T09:37:31;99254.53;;;8.20;77.47
19114;BME280;9689;51.052;13.772;2022-12-22T09:42:33;99248.03;;;8.38;76.83
19114;BME280;9689;51.052;13.772;2022-12-22T09:47:36;99234.47;;;8.58;75.93
19114;BME280;9689;51.052;13.772;2022-12-22T09:52:42;99229.69;;;8.74;76.00
19114;BME280;9689;51.052;13.772;2022-12-22T09:57:45;99220.28;;;8.70;75.90
19114;BME280;9689;51.052;13.772;2022-12-22T10:02:55;99209.22;;;8.63;76.49
19114;BME280;9689;51.052;13.772;2022-12-22T10:08:01;99203.13;;;8.64;76.95
19114;BME280;9689;51.052;13.772;2022-12-22T10:13:03;99198.50;;;8.74;77.12
19114;BME280;9689;51.052;13.772;2022-12-22T10:18:09;99177.88;;;8.69;76.66
19114;BME280;9689;51.052;13.772;2022-12-22T10:23:16;99182.75;;;8.80;77.19
19114;BME280;9689;51.052;13.772;2022-12-22T10:28:19;99167.09;;;8.82;77.31
19114;BME280;9689;51.052;13.772;2022-12-22T10:33:22;99165.13;;;9.16;77.16
19114;BME280;9689;51.052;13.772;2022-12-22T10:38:26;99168.47;;;8.93;76.64
19114;BME280;9689;51.052;13.772;2022-12-22T10:43:29;99166.25;;;8.81;76.97
19114;BME280;9689;51.052;13.772;2022-12-22T10:48:33;99162.47;;;8.63;77.61
19114;BME280;9689;51.052;13.772;2022-12-22T10:53:43;99168.13;;;8.48;78.94
19114;BME280;9689;51.052;13.772;2022-12-22T10:58:48;99160.78;;;8.31;79.36
19114;BME280;9689;51.052;13.772;2022-12-22T11:03:49;99151.41;;;8.27;80.26
19114;BME280;9689;51.052;13.772;2022-12-22T11:08:51;99149.56;;;8.31;79.93
19114;BME280;9689;51.052;13.772;2022-12-22T11:14:17;99145.84;;;8.41;79.49
19114;BME280;9689;51.052;13.772;2022-12-22T11:19:41;99129.00;;;8.54;79.16
19114;BME280;9689;51.052;13.772;2022-12-22T11:24:55;99119.91;;;8.69;78.90
19114;BME280;9689;51.052;13.772;2022-12-22T11:30:04;99106.66;;;8.76;78.47
19114;BME280;9689;51.052;13.772;2022-12-22T11:35:12;99111.66;;;8.83;78.18
19114;BME280;9689;51.052;13.772;2022-12-22T11:40:23;99091.94;;;9.03;79.29
19114;BME280;9689;51.052;13.772;2022-12-22T11:45:38;99082.81;;;9.17;79.76
19114;BME280;9689;51.052;13.772;2022-12-22T11:50:44;99080.88;;;9.23;79.24
19114;BME280;9689;51.052;13.772;2022-12-22T11:56:18;99080.34;;;9.14;79.12
19114;BME280;9689;51.052;13.772;2022-12-22T12:01:34;99089.34;;;9.03;79.00
19114;BME280;9689;51.052;13.772;2022-12-22T12:06:50;99078.28;;;8.97;79.59
19114;BME280;9689;51.052;13.772;2022-12-22T12:12:05;99071.44;;;8.94;79.34
19114;BME280;9689;51.052;13.772;2022-12-22T12:17:19;99073.16;;;8.95;79.06
19114;BME280;9689;51.052;13.772;2022-12-22T12:22:34;99074.94;;;8.93;78.84
19114;BME280;9689;51.052;13.772;2022-12-22T12:27:48;99073.22;;;8.92;79.31
19114;BME280;9689;51.052;13.772;2022-12-22T12:32:57;99072.97;;;9.00;78.84
19114;BME280;9689;51.052;13.772;2022-12-22T12:38:02;99061.59;;;9.04;78.43
19114;BME280;9689;51.052;13.772;2022-12-22T12:43:06;99057.22;;;9.29;77.24
19114;BME280;9689;51.052;13.772;2022-12-22T12:48:37;99056.94;;;9.62;77.06
19114;BME280;9689;51.052;13.772;2022-12-22T12:59:44;99045.66;;;11.38;71.86
19114;BME280;9689;51.052;13.772;2022-12-22T13:10:33;99045.41;;;11.83;69.12
19114;BME280;9689;51.052;13.772;2022-12-22T13:15:37;99042.47;;;11.89;69.16
19114;BME280;9689;51.052;13.772;2022-12-22T13:20:38;99036.16;;;11.95;68.47
19114;BME280;9689;51.052;13.772;2022-12-22T13:25:40;99034.94;;;12.02;67.53
19114;BME280;9689;51.052;13.772;2022-12-22T13:30:47;99042.97;;;11.98;68.61
19114;BME280;9689;51.052;13.772;2022-12-22T13:35:49;99047.16;;;12.02;68.41
19114;BME280;9689;51.052;13.772;2022-12-22T13:40:58;99050.47;;;11.86;68.60
19114;BME280;9689;51.052;13.772;2022-12-22T13:46:01;99041.59;;;11.91;68.08
19114;BME280;9689;51.052;13.772;2022-12-22T13:51:05;99055.41;;;11.93;68.59
19114;BME280;9689;51.052;13.772;2022-12-22T13:56:12;99042.72;;;11.85;68.14
19114;BME280;9689;51.052;13.772;2022-12-22T14:01:17;99045.72;;;11.76;69.32
19114;BME280;9689;51.052;13.772;2022-12-22T14:06:21;99048.47;;;11.73;69.59
19114;BME280;9689;51.052;13.772;2022-12-22T14:11:24;99053.72;;;11.71;69.74
19114;BME280;9689;51.052;13.772;2022-12-22T14:16:26;99054.28;;;11.59;70.35
19114;BME280;9689;51.052;13.772;2022-12-22T14:21:27;99061.25;;;11.58;70.52
19114;BME280;9689;51.052;13.772;2022-12-22T14:26:28;99062.38;;;11.53;70.38
19114;BME280;9689;51.052;13.772;2022-12-22T14:31:31;99062.69;;;11.45;70.88
19114;BME280;9689;51.052;13.772;2022-12-22T14:36:34;99065.44;;;11.42;71.30
19114;BME280;9689;51.052;13.772;2022-12-22T14:41:45;99068.00;;;11.44;71.05
19114;BME280;9689;51.052;13.772;2022-12-22T14:47:14;99074.69;;;11.29;71.16
19114;BME280;9689;51.052;13.772;2022-12-22T14:52:21;99076.81;;;11.21;71.73
19114;BME280;9689;51.052;13.772;2022-12-22T14:57:32;99083.84;;;11.39;71.60
19114;BME280;9689;51.052;13.772;2022-12-22T15:02:48;99096.50;;;11.48;70.45
19114;BME280;9689;51.052;13.772;2022-12-22T15:07:51;99103.59;;;11.65;71.06
19114;BME280;9689;51.052;13.772;2022-12-22T15:13:09;99113.06;;;11.68;71.13
19114;BME280;9689;51.052;13.772;2022-12-22T15:18:14;99116.06;;;11.58;70.49
19114;BME280;9689;51.052;13.772;2022-12-22T15:23:15;99132.56;;;11.59;72.00
19114;BME280;9689;51.052;13.772;2022-12-22T15:28:16;99146.38;;;11.41;73.69
19114;BME280;9689;51.052;13.772;2022-12-22T15:33:18;99155.38;;;11.12;77.04
19114;BME280;9689;51.052;13.772;2022-12-22T15:38:21;99171.59;;;10.76;78.78
19114;BME280;9689;51.052;13.772;2022-12-22T15:43:22;99195.59;;;10.62;80.82
19114;BME280;9689;51.052;13.772;2022-12-22T15:48:44;99212.41;;;10.30;82.24
19114;BME280;9689;51.052;13.772;2022-12-22T15:53:45;99221.03;;;10.06;84.26
19114;BME280;9689;51.052;13.772;2022-12-22T15:58:46;99244.50;;;9.79;86.08
19114;BME280;9689;51.052;13.772;2022-12-22T16:03:49;99251.91;;;9.67;86.49
19114;BME280;9689;51.052;13.772;2022-12-22T16:08:51;99270.47;;;9.54;87.83
19114;BME280;9689;51.052;13.772;2022-12-22T16:13:53;99272.53;;;9.45;88.12
19114;BME280;9689;51.052;13.772;2022-12-22T16:18:55;99276.94;;;9.43;88.81
19114;BME280;9689;51.052;13.772;2022-12-22T16:23:55;99285.78;;;9.37;88.89
19114;BME280;9689;51.052;13.772;2022-12-22T16:28:57;99288.47;;;9.34;89.62
19114;BME280;9689;51.052;13.772;2022-12-22T16:33:59;99302.56;;;9.27;90.48
19114;BME280;9689;51.052;13.772;2022-12-22T16:39:00;99318.31;;;9.22;90.32
19114;BME280;9689;51.052;13.772;2022-12-22T16:44:01;99328.09;;;9.14;90.62
19114;BME280;9689;51.052;13.772;2022-12-22T16:49:08;99370.59;;;9.12;90.77
19114;BME280;9689;51.052;13.772;2022-12-22T16:54:12;99368.25;;;9.02;90.66
19114;BME280;9689;51.052;13.772;2022-12-22T16:59:13;99374.28;;;9.04;90.90
19114;BME280;9689;51.052;13.772;2022-12-22T17:04:19;99378.66;;;9.02;90.29
19114;BME280;9689;51.052;13.772;2022-12-22T17:09:24;99374.56;;;8.94;89.60
19114;BME280;9689;51.052;13.772;2022-12-22T17:14:30;99395.50;;;8.89;89.48
19114;BME280;9689;51.052;13.772;2022-12-22T17:19:32;99406.00;;;8.85;89.50
19114;BME280;9689;51.052;13.772;2022-12-22T17:24:33;99424.38;;;8.78;89.58
19114;BME280;9689;51.052;13.772;2022-12-22T17:29:34;99415.63;;;8.81;89.83
19114;BME280;9689;51.052;13.772;2022-12-22T17:34:37;99421.00;;;8.75;89.38
19114;BME280;9689;51.052;13.772;2022-12-22T17:39:38;99418.34;;;8.78;89.37
19114;BME280;9689;51.052;13.772;2022-12-22T17:44:38;99418.41;;;8.75;89.18
19114;BME280;9689;51.052;13.772;2022-12-22T17:49:41;99434.97;;;8.71;89.78
19114;BME280;9689;51.052;13.772;2022-12-22T17:54:43;99441.81;;;8.73;89.11
19114;BME280;9689;51.052;13.772;2022-12-22T17:59:44;99428.88;;;8.72;88.74
19114;BME280;9689;51.052;13.772;2022-12-22T18:04:47;99441.78;;;8.75;88.60
19114;BME280;9689;51.052;13.772;2022-12-22T18:09:49;99462.59;;;8.73;87.85
19114;BME280;9689;51.052;13.772;2022-12-22T18:14:51;99460.16;;;8.67;88.02
19114;BME280;9689;51.052;13.772;2022-12-22T18:19:54;99473.03;;;8.72;87.36
19114;BME280;9689;51.052;13.772;2022-12-22T18:24:55;99478.31;;;8.69;87.03
19114;BME280;9689;51.052;13.772;2022-12-22T18:29:56;99487.03;;;8.66;86.88
19114;BME280;9689;51.052;13.772;2022-12-22T18:34:59;99484.59;;;8.59;87.60
19114;BME280;9689;51.052;13.772;2022-12-22T18:40:00;99495.09;;;8.56;87.65
19114;BME280;9689;51.052;13.772;2022-12-22T18:45:01;99488.91;;;8.60;86.87
19114;BME280;9689;51.052;13.772;2022-12-22T18:50:04;99488.16;;;8.56;87.25
19114;BME280;9689;51.052;13.772;2022-12-22T18:55:13;99475.81;;;8.29;87.97
19114;BME280;9689;51.052;13.772;2022-12-22T19:00:16;99477.13;;;8.09;88.89
19114;BME280;9689;51.052;13.772;2022-12-22T19:05:31;99471.53;;;7.89;89.75
19114;BME280;9689;51.052;13.772;2022-12-22T19:10:34;99473.19;;;7.93;90.18
19114;BME280;9689;51.052;13.772;2022-12-22T19:15:37;99473.91;;;7.98;89.55
19114;BME280;9689;51.052;13.772;2022-12-22T19:20:39;99471.66;;;7.84;89.80
19114;BME280;9689;51.052;13.772;2022-12-22T19:25:42;99475.59;;;7.62;90.21
19114;BME280;9689;51.052;13.772;2022-12-22T19:30:44;99481.00;;;7.51;90.39
19114;BME280;9689;51.052;13.772;2022-12-22T19:35:46;99485.41;;;7.46;90.88
19114;BME280;9689;51.052;13.772;2022-12-22T19:40:48;99486.19;;;7.51;90.83
19114;BME280;9689;51.052;13.772;2022-12-22T19:45:51;99487.19;;;7.44;90.75
19114;BME280;9689;51.052;13.772;2022-12-22T19:50:54;99485.59;;;7.39;91.19
19114;BME280;9689;51.052;13.772;2022-12-22T19:55:55;99492.34;;;7.47;90.13
19114;BME280;9689;51.052;13.772;2022-12-22T20:00:56;99488.97;;;7.42;90.21
19114;BME280;9689;51.052;13.772;2022-12-22T20:05:59;99491.69;;;7.36;89.42
19114;BME280;9689;51.052;13.772;2022-12-22T20:11:00;99482.31;;;7.29;90.06
19114;BME280;9689;51.052;13.772;2022-12-22T20:16:01;99482.50;;;7.20;90.56
19114;BME280;9689;51.052;13.772;2022-12-22T20:21:06;99481.63;;;7.19;91.17
19114;BME280;9689;51.052;13.772;2022-12-22T20:26:13;99482.63;;;7.12;91.59
19114;BME280;9689;51.052;13.772;2022-12-22T20:31:17;99482.75;;;7.07;91.69
19114;BME280;9689;51.052;13.772;2022-12-22T20:36:22;99482.66;;;7.11;91.50
19114;BME280;9689;51.052;13.772;2022-12-22T20:41:25;99478.34;;;7.13;91.13
19114;BME280;9689;51.052;13.772;2022-12-22T20:46:27;99479.13;;;7.16;91.06
19114;BME280;9689;51.052;13.772;2022-12-22T20:51:32;99479.91;;;7.21;90.90
19114;BME280;9689;51.052;13.772;2022-12-22T20:56:36;99483.34;;;7.20;90.56
19114;BME280;9689;51.052;13.772;2022-12-22T21:01:37;99485.00;;;7.24;90.46
19114;BME280;9689;51.052;13.772;2022-12-22T21:06:43;99485.91;;;7.23;90.25
19114;BME280;9689;51.052;13.772;2022-12-22T21:11:45;99485.91;;;7.23;91.39
19114;BME280;9689;51.052;13.772;2022-12-22T21:16:47;99474.59;;;7.26;91.03
19114;BME280;9689;51.052;13.772;2022-12-22T21:21:49;99478.09;;;7.25;90.82
19114;BME280;9689;51.052;13.772;2022-12-22T21:26:51;99475.50;;;7.25;91.16
19114;BME280;9689;51.052;13.772;2022-12-22T21:31:53;99470.50;;;7.16;91.39
19114;BME280;9689;51.052;13.772;2022-12-22T21:36:58;99463.97;;;6.95;90.88
19114;BME280;9689;51.052;13.772;2022-12-22T21:42:00;99456.47;;;6.81;92.04
19114;BME280;9689;51.052;13.772;2022-12-22T21:47:03;99447.56;;;6.94;92.06
19114;BME280;9689;51.052;13.772;2022-12-22T21:52:05;99447.56;;;6.94;91.64
19114;BME280;9689;51.052;13.772;2022-12-22T21:57:09;99442.28;;;7.00;91.22
19114;BME280;9689;51.052;13.772;2022-12-22T22:02:14;99447.47;;;7.00;91.45
19114;BME280;9689;51.052;13.772;2022-12-22T22:07:17;99446.56;;;7.01;91.34
19114;BME280;9689;51.052;13.772;2022-12-22T22:12:17;99438.91;;;6.97;90.58
19114;BME280;9689;51.052;13.772;2022-12-22T22:17:36;99432.00;;;6.97;91.40
19114;BME280;9689;51.052;13.772;2022-12-22T22:22:38;99423.38;;;6.97;91.10
19114;BME280;9689;51.052;13.772;2022-12-22T22:27:39;99414.09;;;6.87;90.44
19114;BME280;9689;51.052;13.772;2022-12-22T22:32:47;99414.22;;;6.77;90.11
19114;BME280;9689;51.052;13.772;2022-12-22T22:37:49;99411.00;;;6.66;90.63
19114;BME280;9689;51.052;13.772;2022-12-22T22:42:50;99386.84;;;6.66;90.61
19114;BME280;9689;51.052;13.772;2022-12-22T22:47:51;99380.91;;;6.59;91.65
19114;BME280;9689;51.052;13.772;2022-12-22T22:52:53;99380.91;;;6.61;91.91
19114;BME280;9689;51.052;13.772;2022-12-22T22:57:54;99367.91;;;6.64;91.89
19114;BME280;9689;51.052;13.772;2022-12-22T23:02:55;99378.09;;;6.73;91.36
19114;BME280;9689;51.052;13.772;2022-12-22T23:07:59;99367.78;;;6.68;91.83
19114;BME280;9689;51.052;13.772;2022-12-22T23:12:59;99368.34;;;6.84;91.56
19114;BME280;9689;51.052;13.772;2022-12-22T23:18:00;99361.59;;;6.78;91.54
19114;BME280;9689;51.052;13.772;2022-12-22T23:23:02;99351.31;;;6.74;91.02
19114;BME280;9689;51.052;13.772;2022-12-22T23:28:03;99346.09;;;6.75;90.98
19114;BME280;9689;51.052;13.772;2022-12-22T23:33:04;99339.94;;;6.81;91.67
19114;BME280;9689;51.052;13.772;2022-12-22T23:38:07;99342.09;;;6.61;91.65
19114;BME280;9689;51.052;13.772;2022-12-22T23:43:10;99331.88;;;6.53;90.59
19114;BME280;9689;51.052;13.772;2022-12-22T23:48:11;99327.59;;;6.52;91.39
19114;BME280;9689;51.052;13.772;2022-12-22T23:53:13;99320.72;;;6.49;91.03
19114;BME280;9689;51.052;13.772;2022-12-22T23:58:15;99317.06;;;6.60;90.89
